createdAt,value
2022-10-18T00:00:06.409Z,10.8
2022-10-18T00:05:07.032Z,10.2
2022-10-18T00:10:06.948Z,9.7
2022-10-18T00:15:06.971Z,11.9
2022-10-18T00:20:06.886Z,9.7
2022-10-18T00:25:06.648Z,10.6
2022-10-18T00:30:06.666Z,11.7
2022-10-18T00:35:06.626Z,8.6
2022-10-18T00:40:06.595Z,7.5
2022-10-18T00:45:06.496Z,8.4
2022-10-18T00:50:06.509Z,8.5
2022-10-18T00:55:06.298Z,8.3
2022-10-18T01:00:07.358Z,8
2022-10-18T01:05:06.845Z,9
2022-10-18T01:10:06.601Z,10.6
2022-10-18T01:15:06.672Z,10.2
2022-10-18T01:20:06.879Z,11
2022-10-18T01:25:06.613Z,9.1
2022-10-18T01:30:06.852Z,9.4
2022-10-18T01:35:06.918Z,11.2
2022-10-18T01:40:06.972Z,9.3
2022-10-18T01:45:06.939Z,8
2022-10-18T01:50:06.900Z,8.9
2022-10-18T01:55:06.786Z,8.8
2022-10-18T02:00:07.176Z,7.9
2022-10-18T02:05:07.074Z,8.8
2022-10-18T02:10:06.866Z,9.8
2022-10-18T02:15:06.237Z,9
2022-10-18T02:20:06.898Z,8.7
2022-10-18T02:25:06.225Z,8.3
2022-10-18T02:30:07.229Z,9.3
2022-10-18T02:35:06.431Z,19
2022-10-18T02:40:06.746Z,22.8
2022-10-18T02:45:06.746Z,19.1
2022-10-18T02:50:06.884Z,11.7
2022-10-18T02:55:07.057Z,8.2
2022-10-18T03:00:07.227Z,10.4
2022-10-18T03:05:06.694Z,9.4
2022-10-18T03:10:06.538Z,10.6
2022-10-18T03:15:06.673Z,8.9
2022-10-18T03:20:06.696Z,9.7
2022-10-18T03:25:06.747Z,7.2
2022-10-18T03:30:06.577Z,7.8
2022-10-18T03:35:06.704Z,7.3
2022-10-18T03:40:06.838Z,8
2022-10-18T03:45:06.615Z,11.8
2022-10-18T03:50:06.578Z,15.1
2022-10-18T03:55:06.864Z,19
2022-10-18T04:00:06.948Z,9.3
2022-10-18T04:05:06.445Z,8.7
2022-10-18T04:10:06.522Z,8.5
2022-10-18T04:15:06.496Z,7.6
2022-10-18T04:20:06.376Z,7.5
2022-10-18T04:25:07.193Z,9.5
2022-10-18T04:30:07.117Z,9.7
2022-10-18T04:35:07.018Z,8.9
2022-10-18T04:40:06.971Z,8.5
2022-10-18T04:45:06.930Z,9.8
2022-10-18T04:50:06.877Z,11.1
2022-10-18T04:55:06.759Z,11.9
2022-10-18T05:00:06.778Z,8.6
2022-10-18T05:05:06.578Z,8.5
2022-10-18T05:10:06.378Z,8
2022-10-18T05:15:06.356Z,9.7
2022-10-18T05:20:06.420Z,11.5
2022-10-18T05:25:06.487Z,13.7
2022-10-18T05:30:07.237Z,21.2
2022-10-18T05:35:06.259Z,26.1
2022-10-18T05:40:07.231Z,11.8
2022-10-18T05:45:07.207Z,8.3
2022-10-18T05:50:06.361Z,7.6
2022-10-18T05:55:06.932Z,8.1
2022-10-18T06:00:07.025Z,9
2022-10-18T06:05:06.349Z,7.5
2022-10-18T06:10:06.240Z,10
2022-10-18T06:15:07.187Z,21.5
2022-10-18T06:20:07.198Z,12
2022-10-18T06:25:07.229Z,14.4
2022-10-18T06:30:06.287Z,14.7
2022-10-18T06:35:06.363Z,13.7
2022-10-18T06:40:06.643Z,15.7
2022-10-18T06:45:06.568Z,10
2022-10-18T06:50:06.582Z,8.6
2022-10-18T06:55:06.729Z,9.9
2022-10-18T07:00:06.617Z,10.4
2022-10-18T07:10:06.372Z,10.1
2022-10-18T07:20:06.539Z,8.7
2022-10-18T07:25:06.586Z,11
2022-10-18T07:30:06.533Z,11.7
2022-10-18T07:35:06.438Z,12.3
2022-10-18T07:40:06.366Z,13.9
2022-10-18T07:45:06.660Z,10.9
2022-10-18T07:50:06.777Z,11.6
2022-10-18T07:55:07.028Z,14.2
2022-10-18T08:00:07.148Z,9.9
2022-10-18T08:10:06.923Z,11.8
2022-10-18T08:15:06.961Z,11.5
2022-10-18T08:20:07.046Z,12.7
2022-10-18T08:25:06.870Z,11.3
2022-10-18T08:30:06.856Z,13
2022-10-18T08:35:06.684Z,13.5
2022-10-18T08:40:06.734Z,14.7
2022-10-18T08:45:06.660Z,11.6
2022-10-18T08:50:07.138Z,11
2022-10-18T08:55:06.671Z,12.6
2022-10-18T09:00:06.991Z,11.8
2022-10-18T09:05:06.331Z,10.3
2022-10-18T09:10:06.910Z,13.3
2022-10-18T09:15:06.682Z,12.6
2022-10-18T09:20:07.033Z,11.2
2022-10-18T09:25:06.213Z,13.6
2022-10-18T09:30:07.032Z,9.9
2022-10-18T09:35:07.074Z,9.5
2022-10-18T09:40:07.146Z,10.7
2022-10-18T09:45:07.205Z,10.2
2022-10-18T09:50:07.308Z,9
2022-10-18T09:55:06.522Z,7.9
2022-10-18T10:00:06.400Z,8.1
2022-10-18T10:05:06.855Z,8.5
2022-10-18T10:10:06.879Z,10.1
2022-10-18T10:15:06.728Z,7.9
2022-10-18T10:20:06.907Z,7.9
2022-10-18T10:25:06.679Z,8.6
2022-10-18T10:30:06.985Z,7.9
2022-10-18T10:35:07.077Z,8.5
2022-10-18T10:40:06.669Z,9.3
2022-10-18T10:45:06.653Z,7.9
2022-10-18T10:55:06.610Z,7.1
2022-10-18T11:00:07.158Z,6.1
2022-10-18T11:05:06.815Z,6.6
2022-10-18T11:10:06.343Z,5.8
2022-10-18T11:15:06.639Z,7
2022-10-18T11:20:07.017Z,6.6
2022-10-18T11:25:06.882Z,3.7
2022-10-18T11:30:06.234Z,5.6
2022-10-18T11:35:07.002Z,5.1
2022-10-18T11:40:07.088Z,6.4
2022-10-18T11:45:06.734Z,6.8
2022-10-18T11:50:06.513Z,4.8
2022-10-18T11:55:06.750Z,8
2022-10-18T12:00:07.192Z,6.6
2022-10-18T12:05:06.403Z,5.7
2022-10-18T12:10:06.612Z,5.9
2022-10-18T12:15:06.292Z,5.9
2022-10-18T12:20:07.072Z,9.7
2022-10-18T12:25:06.692Z,5.4
2022-10-18T12:30:06.471Z,5.9
2022-10-18T12:35:07.110Z,5
2022-10-18T12:40:06.918Z,7.8
2022-10-18T12:45:07.151Z,6.1
2022-10-18T12:50:06.526Z,6
2022-10-18T12:55:07.132Z,7
2022-10-18T13:00:06.643Z,6.5
2022-10-18T13:05:06.695Z,6.9
2022-10-18T13:10:07.150Z,5.1
2022-10-18T13:15:07.124Z,5.9
2022-10-18T13:20:06.797Z,6.7
2022-10-18T13:25:06.336Z,7.6
2022-10-18T13:30:06.861Z,6.9
2022-10-18T13:35:06.608Z,8
2022-10-18T13:40:06.909Z,6.7
2022-10-18T13:45:06.906Z,10.8
2022-10-18T13:50:06.422Z,15.8
2022-10-18T13:55:06.432Z,22.5
2022-10-18T14:00:06.354Z,999.9
2022-10-18T14:05:06.651Z,999.9
2022-10-18T14:10:06.690Z,999.9
2022-10-18T14:15:06.296Z,999.9
2022-10-18T14:20:06.692Z,999.9
2022-10-18T14:25:06.338Z,999.9
2022-10-18T14:30:06.384Z,51.9
2022-10-18T14:35:07.083Z,999.9
2022-10-18T14:40:07.075Z,999.9
2022-10-18T14:45:06.867Z,4.4
2022-10-18T14:50:06.820Z,6.2
2022-10-18T14:55:06.632Z,4.4
2022-10-18T15:00:06.749Z,5.4
2022-10-18T15:05:06.637Z,4.3
2022-10-18T15:10:06.844Z,4.5
2022-10-18T15:15:06.590Z,4.9
2022-10-18T15:20:06.682Z,5.5
2022-10-18T15:25:06.763Z,4
2022-10-18T15:30:06.609Z,5.1
2022-10-18T15:35:06.598Z,5.6
2022-10-18T15:40:06.662Z,5.9
2022-10-18T15:45:07.138Z,5.1
2022-10-18T15:50:06.836Z,5.2
2022-10-18T15:55:06.658Z,4.4
2022-10-18T16:00:06.687Z,6.7
2022-10-18T16:05:06.979Z,7.7
2022-10-18T16:10:06.979Z,9.2
2022-10-18T16:15:06.899Z,9.9
2022-10-18T16:20:06.897Z,9
2022-10-18T16:25:06.827Z,8.8
2022-10-18T16:30:06.911Z,7.9
2022-10-18T16:35:06.927Z,9
2022-10-18T16:40:06.791Z,9.7
2022-10-18T16:45:07.029Z,6.6
2022-10-18T16:50:07.078Z,8.9
2022-10-18T16:55:06.916Z,12.9
2022-10-18T17:00:06.998Z,13.4
2022-10-18T17:05:06.453Z,12.7
2022-10-18T17:10:06.451Z,16.3
2022-10-18T17:15:06.235Z,19.7
2022-10-18T17:20:06.700Z,22.9
2022-10-18T17:25:06.508Z,20.8
2022-10-18T17:30:06.592Z,23.1
2022-10-18T17:35:06.561Z,18.7
2022-10-18T17:40:06.562Z,19.4
2022-10-18T17:45:06.546Z,15.1
2022-10-18T17:50:06.510Z,17.5
2022-10-18T17:55:06.603Z,18.9
2022-10-18T18:00:06.886Z,17.8
2022-10-18T18:05:06.255Z,16.5
2022-10-18T18:10:06.307Z,21.9
2022-10-18T18:15:07.234Z,20.7
2022-10-18T18:20:07.155Z,19.5
2022-10-18T18:25:07.010Z,22.1
2022-10-18T18:30:06.932Z,20.5
2022-10-18T18:35:06.775Z,21
2022-10-18T18:40:06.838Z,18.6
2022-10-18T18:45:06.501Z,17
2022-10-18T18:50:06.420Z,29.4
2022-10-18T18:55:06.490Z,19.5
2022-10-18T19:00:06.439Z,22.1
2022-10-18T19:05:06.262Z,21.2
2022-10-18T19:10:06.430Z,25.4
2022-10-18T19:15:06.377Z,23.3
2022-10-18T19:20:06.883Z,19
2022-10-18T19:25:06.805Z,22.4
2022-10-18T19:30:06.716Z,20.1
2022-10-18T19:35:06.526Z,23.1
2022-10-18T19:40:07.141Z,17.3
2022-10-18T19:45:07.147Z,15.4
2022-10-18T19:50:07.168Z,17.8
2022-10-18T19:55:06.302Z,38.8
2022-10-18T20:00:07.290Z,19.5
2022-10-18T20:05:06.831Z,18.6
2022-10-18T20:10:06.784Z,18.4
2022-10-18T20:15:06.632Z,18.9
2022-10-18T20:20:06.714Z,18.5
2022-10-18T20:25:06.578Z,28.9
2022-10-18T20:30:06.703Z,20.4
2022-10-18T20:35:06.561Z,17.7
2022-10-18T20:40:06.621Z,15.6
2022-10-18T20:45:06.242Z,16.1
2022-10-18T20:50:07.090Z,17.5
2022-10-18T20:55:07.080Z,16.4
2022-10-18T21:00:07.100Z,14.4
2022-10-18T21:05:06.716Z,15.2
2022-10-18T21:10:06.833Z,15.2
2022-10-18T21:15:06.964Z,13
2022-10-18T21:20:06.877Z,13.6
2022-10-18T21:25:06.783Z,26.9
2022-10-18T21:30:06.750Z,19.3
2022-10-18T21:35:06.708Z,16.8
2022-10-18T21:40:06.657Z,18
2022-10-18T21:45:06.578Z,15
2022-10-18T21:50:06.440Z,20
2022-10-18T21:55:06.293Z,16.4
2022-10-18T22:00:07.005Z,16.1
2022-10-18T22:05:06.344Z,13.6
2022-10-18T22:10:06.359Z,14.6
2022-10-18T22:15:06.305Z,15.1
2022-10-18T22:20:06.325Z,18.2
2022-10-18T22:25:06.216Z,20.1
2022-10-18T22:30:06.371Z,16.9
2022-10-18T22:35:06.988Z,14.5
2022-10-18T22:40:06.945Z,17.6
2022-10-18T22:45:06.891Z,14.4
2022-10-18T22:50:06.743Z,15.2
2022-10-18T22:55:06.749Z,15.5
2022-10-18T23:00:06.846Z,15.3
2022-10-18T23:05:08.756Z,14.9
2022-10-18T23:10:06.839Z,16.2
2022-10-18T23:15:06.861Z,14.2
2022-10-18T23:20:06.772Z,15.5
2022-10-18T23:25:06.267Z,14.4
2022-10-18T23:30:06.900Z,16.6
2022-10-18T23:35:06.984Z,14.7
2022-10-18T23:40:06.506Z,12.3
2022-10-18T23:45:06.220Z,12.8
2022-10-18T23:50:07.000Z,12.3
2022-10-18T23:55:06.907Z,9.9
